Time;durP1;ratioP1;P1;durP2;ratioP2;P2;SDS_P1;SDS_P2;PMS_P1;PMS_P2;Temp;Humidity;BMP_temperature;BMP_pressure;BME280_temperature;BME280_humidity;BME280_pressure;Samples;Min_cycle;Max_cycle;Signal;HPM_P1;HPM_P2
2021/12/08 00:01:20;;;;;;;31.83;18.63;;;0.10;99.00;;;;;;5034200;28;20032;-77
2021/12/08 00:03:46;;;;;;;24.17;16.33;;;0.10;99.10;;;;;;5032119;28;20120;-76
2021/12/08 00:06:12;;;;;;;26.13;17.10;;;0.10;99.10;;;;;;5031890;28;20109;-76
2021/12/08 00:08:39;;;;;;;23.77;15.82;;;0.10;99.00;;;;;;5035314;28;20445;-77
2021/12/08 00:13:50;;;;;;;20.67;16.05;;;0.10;98.50;;;;;;5036769;28;20027;-77
2021/12/08 00:16:17;;;;;;;26.93;16.23;;;0.10;98.70;;;;;;5037770;28;20538;-77
2021/12/08 00:18:47;;;;;;;24.63;16.42;;;0.10;98.90;;;;;;5035063;28;20018;-78
2021/12/08 00:21:15;;;;;;;24.08;16.17;;;0.10;98.70;;;;;;5035318;28;20022;-77
2021/12/08 00:23:42;;;;;;;23.27;14.30;;;0.10;98.30;;;;;;5035438;28;20107;-78
2021/12/08 00:26:09;;;;;;;19.40;13.77;;;0.00;98.10;;;;;;5034876;28;20477;-76
2021/12/08 00:28:35;;;;;;;20.08;13.75;;;0.00;98.10;;;;;;5017590;28;20033;-77
2021/12/08 00:31:06;;;;;;;19.63;13.80;;;0.00;98.20;;;;;;5009061;28;20097;-77
2021/12/08 00:33:32;;;;;;;20.48;15.30;;;0.00;98.30;;;;;;5034982;28;20131;-78
2021/12/08 00:36:01;;;;;;;21.38;14.43;;;0.00;98.10;;;;;;5035039;28;20013;-76
2021/12/08 00:38:27;;;;;;;21.70;14.57;;;0.00;97.90;;;;;;5035029;28;20033;-77
2021/12/08 00:40:53;;;;;;;20.95;14.73;;;0.00;98.10;;;;;;5035001;28;20025;-77
2021/12/08 00:43:20;;;;;;;21.75;15.00;;;0.00;97.90;;;;;;5034857;28;20030;-76
2021/12/08 00:45:47;;;;;;;22.10;15.18;;;0.00;97.40;;;;;;5035504;28;20028;-78
2021/12/08 00:48:13;;;;;;;22.75;14.40;;;0.00;97.50;;;;;;5034634;28;20105;-76
2021/12/08 00:50:40;;;;;;;22.55;14.55;;;-0.10;97.70;;;;;;5035269;28;20499;-77
2021/12/08 00:53:06;;;;;;;21.30;15.05;;;0.00;97.80;;;;;;5035138;28;20041;-76
2021/12/08 00:55:32;;;;;;;19.38;12.57;;;-0.10;97.60;;;;;;5034619;28;20033;-78
2021/12/08 00:57:58;;;;;;;22.67;15.40;;;-0.10;97.20;;;;;;5034619;28;20022;-77
2021/12/08 01:00:31;;;;;;;20.02;13.48;;;-0.10;97.00;;;;;;5034569;28;20382;-78
2021/12/08 01:02:57;;;;;;;21.77;14.75;;;-0.10;96.90;;;;;;5036554;28;20073;-76
2021/12/08 01:05:29;;;;;;;20.25;14.50;;;-0.10;97.00;;;;;;5034523;28;20381;-78
2021/12/08 01:07:55;;;;;;;26.48;15.35;;;-0.10;97.00;;;;;;5034330;28;20381;-77
2021/12/08 01:10:25;;;;;;;21.02;13.15;;;-0.10;97.10;;;;;;5034117;28;20029;-76
2021/12/08 01:12:51;;;;;;;23.85;15.93;;;-0.20;96.90;;;;;;5034433;28;20072;-78
2021/12/08 01:15:18;;;;;;;24.17;15.00;;;-0.20;97.00;;;;;;5034067;28;20141;-77
2021/12/08 01:17:44;;;;;;;24.65;14.45;;;-0.20;97.00;;;;;;5033514;28;20040;-77
2021/12/08 01:20:13;;;;;;;24.23;16.08;;;-0.20;97.00;;;;;;5034118;28;20029;-76
2021/12/08 01:22:39;;;;;;;23.02;17.52;;;-0.20;97.20;;;;;;5033970;28;20482;-76
2021/12/08 01:25:05;;;;;;;24.50;15.15;;;-0.20;97.30;;;;;;5034068;28;20030;-77
2021/12/08 01:27:33;;;;;;;22.77;16.50;;;-0.20;96.70;;;;;;5033846;28;20097;-76
2021/12/08 01:29:59;;;;;;;;;;;-0.20;96.80;;;;;;5016698;28;20390;-76
2021/12/08 01:32:24;;;;;;;23.13;15.38;;;-0.20;96.80;;;;;;5033967;28;19999;-76
2021/12/08 01:34:52;;;;;;;25.67;16.10;;;-0.20;97.10;;;;;;5034415;28;20030;-76
2021/12/08 01:37:18;;;;;;;26.38;16.33;;;-0.20;97.30;;;;;;5033712;28;20021;-77
2021/12/08 01:39:44;;;;;;;24.00;16.40;;;-0.20;97.10;;;;;;5034034;28;20029;-77
2021/12/08 01:42:26;;;;;;;24.08;15.18;;;-0.20;97.00;;;;;;5033657;28;20041;-77
2021/12/08 01:47:37;;;;;;;22.80;14.48;;;-0.30;96.60;;;;;;5021425;28;20041;-77
2021/12/08 01:50:05;;;;;;;24.17;16.77;;;-0.30;96.50;;;;;;5049571;28;20029;-77
2021/12/08 01:52:31;;;;;;;23.50;16.67;;;-0.40;96.30;;;;;;5050806;28;20097;-77
2021/12/08 01:54:57;;;;;;;24.58;16.60;;;-0.40;96.20;;;;;;5034819;28;20057;-75
2021/12/08 01:57:24;;;;;;;25.60;14.68;;;-0.40;95.90;;;;;;5033957;28;20445;-76
2021/12/08 01:59:50;;;;;;;20.80;14.05;;;-0.40;95.70;;;;;;5033644;28;20030;-76
2021/12/08 02:02:16;;;;;;;29.95;16.35;;;-0.40;95.40;;;;;;5033419;28;20095;-77
2021/12/08 02:04:42;;;;;;;25.60;16.17;;;-0.50;95.30;;;;;;5033479;28;20022;-77
2021/12/08 02:07:08;;;;;;;29.25;17.77;;;-0.50;95.30;;;;;;5033394;28;20028;-77
2021/12/08 02:09:34;;;;;;;28.30;19.30;;;-0.50;95.10;;;;;;5033613;28;20052;-78
2021/12/08 02:12:01;;;;;;;26.85;17.05;;;-0.60;95.20;;;;;;5033262;28;20763;-77
2021/12/08 02:14:26;;;;;;;23.55;15.82;;;-0.60;95.60;;;;;;5033364;28;20128;-77
2021/12/08 02:16:55;;;;;;;26.48;16.38;;;-0.50;95.70;;;;;;5038938;28;20064;-77
2021/12/08 02:19:22;;;;;;;24.10;16.08;;;-0.50;95.40;;;;;;5033178;28;20056;-77
2021/12/08 02:21:52;;;;;;;20.65;12.57;;;-0.50;95.00;;;;;;5032952;28;20083;-77
2021/12/08 02:24:19;;;;;;;25.63;16.23;;;-0.60;94.80;;;;;;5033099;28;20080;-78
2021/12/08 02:26:46;;;;;;;28.90;17.80;;;-0.70;94.70;;;;;;5032980;28;20033;-77
2021/12/08 02:29:26;;;;;;;29.90;18.50;;;-0.70;95.10;;;;;;5032434;28;20030;-78
2021/12/08 02:32:00;;;;;;;29.17;15.73;;;-0.70;95.10;;;;;;5032967;28;20025;-78
2021/12/08 02:48:07;;;;;;;29.45;18.38;;;-1.00;95.40;;;;;;5032703;28;20399;-79
2021/12/08 02:50:37;;;;;;;25.77;18.42;;;-1.00;95.30;;;;;;5015624;28;20316;-79
2021/12/08 02:53:04;;;;;;;29.52;18.30;;;-1.00;95.20;;;;;;5032652;28;20032;-78
2021/12/08 02:55:30;;;;;;;29.92;18.25;;;-1.00;95.40;;;;;;5032643;28;20382;-78
2021/12/08 02:57:57;;;;;;;30.95;19.58;;;-1.00;95.30;;;;;;5032445;28;20120;-80
2021/12/08 03:00:27;;;;;;;27.65;18.13;;;-1.00;95.50;;;;;;5032945;28;20054;-78
2021/12/08 03:02:56;;;;;;;27.02;17.33;;;-1.00;95.20;;;;;;5033198;28;20076;-78
2021/12/08 03:05:22;;;;;;;30.65;19.10;;;-1.20;95.30;;;;;;5033031;28;20053;-78
2021/12/08 03:07:48;;;;;;;35.05;20.70;;;-1.10;95.80;;;;;;5032763;28;20034;-78
2021/12/08 03:10:19;;;;;;;32.85;19.65;;;-1.10;95.60;;;;;;5032585;28;20537;-79
2021/12/08 03:12:45;;;;;;;33.20;20.63;;;-1.20;95.50;;;;;;5032891;28;20025;-78
2021/12/08 03:15:12;;;;;;;32.00;20.05;;;-1.20;95.80;;;;;;5032980;28;20486;-78
2021/12/08 03:17:38;;;;;;;33.30;19.50;;;-1.10;96.00;;;;;;5032315;28;20025;-78
2021/12/08 03:20:11;;;;;;;32.28;19.20;;;-1.10;96.00;;;;;;5032570;28;20038;-77
2021/12/08 03:22:44;;;;;;;33.72;21.50;;;-1.10;95.90;;;;;;5032184;28;20048;-78
2021/12/08 03:25:13;;;;;;;32.53;19.13;;;-1.10;96.00;;;;;;5032553;28;20033;-78
2021/12/08 03:27:47;;;;;;;32.42;19.92;;;-1.10;96.20;;;;;;5030446;28;20030;-78
2021/12/08 03:30:21;;;;;;;32.35;20.50;;;-1.10;96.10;;;;;;5023807;28;20117;-78
2021/12/08 03:32:47;;;;;;;30.42;18.30;;;-1.10;96.20;;;;;;5032000;28;20079;-77
2021/12/08 03:35:16;;;;;;;29.30;17.15;;;-1.10;96.10;;;;;;5032345;28;20030;-79
2021/12/08 03:37:45;;;;;;;29.23;17.42;;;-1.20;96.30;;;;;;5032279;28;20029;-80
2021/12/08 03:40:24;;;;;;;28.65;17.50;;;-1.20;95.80;;;;;;5032370;28;20569;-78
2021/12/08 03:42:54;;;;;;;29.70;16.55;;;-1.40;95.60;;;;;;5034901;28;20037;-79
2021/12/08 03:45:34;;;;;;;26.30;15.27;;;-1.50;95.60;;;;;;5024813;28;20389;-77
2021/12/08 03:48:04;;;;;;;29.52;19.17;;;-1.60;95.60;;;;;;5038408;28;20021;-78
2021/12/08 03:50:33;;;;;;;33.88;19.75;;;-1.70;95.50;;;;;;5054908;28;20017;-76
2021/12/08 03:52:59;;;;;;;29.23;18.60;;;-1.80;95.50;;;;;;5042022;28;20041;-79
2021/12/08 03:55:25;;;;;;;30.25;19.42;;;-1.90;95.70;;;;;;5036532;28;20013;-78
2021/12/08 03:57:51;;;;;;;32.45;20.65;;;-2.00;95.90;;;;;;5036583;28;20029;-80
2021/12/08 04:00:21;;;;;;;28.60;16.08;;;-2.10;95.70;;;;;;5035974;28;20346;-81
2021/12/08 04:02:48;;;;;;;41.05;20.50;;;-2.30;95.90;;;;;;5034210;28;20037;-79
2021/12/08 04:05:19;;;;;;;28.63;17.90;;;-2.40;96.20;;;;;;5035767;28;20021;-80
2021/12/08 04:07:47;;;;;;;33.92;21.85;;;-2.40;96.60;;;;;;5035999;28;20830;-79
2021/12/08 04:10:19;;;;;;;32.58;19.65;;;-2.40;96.90;;;;;;5035481;28;20124;-78
2021/12/08 04:12:49;;;;;;;35.15;19.60;;;-2.50;97.10;;;;;;5035649;28;20028;-80
2021/12/08 04:15:16;;;;;;;32.85;20.35;;;-2.50;97.20;;;;;;5034926;28;20045;-80
2021/12/08 04:17:46;;;;;;;32.80;21.73;;;-2.50;97.30;;;;;;5035529;28;20072;-80
2021/12/08 04:20:17;;;;;;;28.90;17.50;;;-2.50;97.20;;;;;;5035423;28;20029;-80
2021/12/08 04:22:46;;;;;;;34.13;17.80;;;-2.60;97.10;;;;;;5035109;28;20068;-80
2021/12/08 04:25:17;;;;;;;34.22;20.15;;;-2.60;97.20;;;;;;5035479;28;20092;-80
2021/12/08 04:27:44;;;;;;;37.17;18.88;;;-2.60;97.50;;;;;;5037752;28;20418;-80
2021/12/08 04:30:38;;;;;;;36.45;20.85;;;-2.60;97.60;;;;;;5035228;28;20024;-80
2021/12/08 04:33:06;;;;;;;32.15;18.33;;;-2.60;97.30;;;;;;5035159;28;20380;-79
2021/12/08 04:35:32;;;;;;;38.97;17.48;;;-2.60;96.80;;;;;;5035239;28;20026;-79
2021/12/08 04:38:04;;;;;;;36.55;20.40;;;-2.70;96.60;;;;;;5034887;28;20029;-80
2021/12/08 04:40:49;;;;;;;33.33;20.42;;;-2.70;96.50;;;;;;5035373;28;20033;-81
2021/12/08 04:46:24;;;;;;;27.20;15.65;;;-2.80;96.40;;;;;;4996063;28;20056;-81
2021/12/08 05:02:19;;;;;;;33.85;21.55;;;-2.70;96.90;;;;;;5039027;28;20032;-82
2021/12/08 05:10:01;;;;;;;32.65;19.75;;;-2.60;96.90;;;;;;5034909;28;20028;-79
2021/12/08 05:12:31;;;;;;;29.77;18.58;;;-2.60;96.70;;;;;;5035156;28;20049;-81
2021/12/08 05:15:12;;;;;;;35.45;20.17;;;-2.60;96.60;;;;;;5032942;28;20137;-79
2021/12/08 05:17:49;;;;;;;35.75;21.73;;;-2.60;96.40;;;;;;5016062;28;20027;-80
2021/12/08 05:20:22;;;;;;;35.97;20.20;;;-2.60;96.30;;;;;;5034243;28;20057;-82
2021/12/08 05:22:55;;;;;;;32.63;17.92;;;-2.60;96.30;;;;;;5033962;28;20042;-81
2021/12/08 05:25:23;;;;;;;32.08;18.85;;;-2.60;96.10;;;;;;5016564;28;20067;-81
2021/12/08 05:27:52;;;;;;;33.13;18.08;;;-2.70;96.00;;;;;;5034270;28;20026;-79
2021/12/08 05:30:31;;;;;;;29.15;15.35;;;-2.70;95.50;;;;;;5033830;28;20176;-81
2021/12/08 05:32:59;;;;;;;35.85;19.83;;;-2.90;95.20;;;;;;5033648;28;20060;-80
2021/12/08 05:35:25;;;;;;;;;;;-3.00;95.30;;;;;;5034763;28;20422;-80
2021/12/08 05:37:51;;;;;;;36.88;18.67;;;-3.10;95.40;;;;;;5024800;28;19952;-81
2021/12/08 05:40:23;;;;;;;34.80;20.13;;;-3.10;95.10;;;;;;5029576;28;20022;-80
2021/12/08 05:42:49;;;;;;;33.50;18.95;;;-3.20;95.20;;;;;;5044716;28;20053;-79
2021/12/08 05:45:19;;;;;;;33.40;19.00;;;-3.20;95.20;;;;;;5030182;28;20074;-79
2021/12/08 05:47:47;;;;;;;39.78;19.90;;;-3.30;95.00;;;;;;5034134;28;20022;-81
2021/12/08 05:50:17;;;;;;;31.95;17.77;;;-3.40;94.80;;;;;;5033650;28;20032;-80
2021/12/08 05:52:43;;;;;;;32.75;19.00;;;-3.40;94.90;;;;;;5016579;28;20501;-81
2021/12/08 05:55:10;;;;;;;33.83;17.40;;;-3.50;94.60;;;;;;5034417;28;20088;-80
2021/12/08 05:57:39;;;;;;;37.30;19.70;;;-3.60;94.80;;;;;;5033650;28;20033;-80
2021/12/08 06:00:17;;;;;;;29.77;16.52;;;-3.70;95.00;;;;;;5033788;28;20022;-80
2021/12/08 06:02:46;;;;;;;28.05;16.08;;;-3.70;95.10;;;;;;5034021;28;20037;-79
2021/12/08 06:05:31;;;;;;;38.20;19.08;;;-3.80;95.20;;;;;;5035697;28;20083;-82
2021/12/08 06:07:57;;;;;;;29.10;17.13;;;-3.90;95.20;;;;;;5035816;28;20026;-81
2021/12/08 06:10:31;;;;;;;27.98;16.27;;;-4.00;95.00;;;;;;5033810;28;20018;-80
2021/12/08 06:12:58;;;;;;;34.72;19.92;;;-4.00;95.00;;;;;;5033076;28;20417;-79
2021/12/08 06:15:24;;;;;;;36.25;20.17;;;-4.20;95.00;;;;;;5032718;28;20483;-80
2021/12/08 06:17:52;;;;;;;38.33;21.27;;;-4.20;95.30;;;;;;5033736;28;20040;-80
2021/12/08 06:20:19;;;;;;;29.42;16.60;;;-4.30;95.40;;;;;;5016041;28;20076;-79
2021/12/08 06:22:47;;;;;;;35.67;17.60;;;-4.30;95.60;;;;;;5032962;28;20425;-82
2021/12/08 06:25:15;;;;;;;32.88;17.30;;;-4.40;95.70;;;;;;5033000;28;20029;-81
2021/12/08 06:27:41;;;;;;;36.83;19.67;;;-4.40;95.80;;;;;;5015369;28;20049;-79
2021/12/08 06:30:11;;;;;;;39.90;21.02;;;-4.40;96.00;;;;;;5033133;28;20376;-81
2021/12/08 06:32:37;;;;;;;52.30;23.45;;;-4.40;96.20;;;;;;5033912;28;20548;-83
2021/12/08 06:35:05;;;;;;;31.20;16.17;;;-4.30;96.30;;;;;;5034242;28;20112;-81
2021/12/08 06:37:35;;;;;;;35.78;18.27;;;-4.30;96.30;;;;;;5030973;28;20033;-82
2021/12/08 06:40:13;;;;;;;36.90;18.73;;;-4.30;96.30;;;;;;5032415;28;20078;-81
2021/12/08 06:42:41;;;;;;;36.50;18.27;;;-4.30;96.30;;;;;;5033166;28;20073;-81
2021/12/08 06:45:13;;;;;;;38.88;19.60;;;-4.30;96.30;;;;;;5032837;28;20017;-81
2021/12/08 06:47:39;;;;;;;35.58;18.05;;;-4.30;96.40;;;;;;5033111;28;20451;-80
2021/12/08 06:50:12;;;;;;;34.25;17.17;;;-4.30;96.50;;;;;;5033642;28;20410;-83
2021/12/08 06:52:38;;;;;;;30.40;17.10;;;-4.20;96.40;;;;;;5032432;28;20014;-81
2021/12/08 06:55:21;;;;;;;41.07;20.07;;;-4.20;96.30;;;;;;5032582;28;20417;-86
2021/12/08 06:57:53;;;;;;;35.63;16.73;;;-4.20;96.40;;;;;;5045154;28;20635;-82
2021/12/08 07:00:24;;;;;;;36.42;18.90;;;-4.20;96.20;;;;;;5031022;28;20040;-80
2021/12/08 07:03:18;;;;;;;35.58;16.73;;;-4.10;96.20;;;;;;5032960;28;20069;-83
2021/12/08 07:06:04;;;;;;;36.85;19.65;;;-4.00;96.10;;;;;;5012110;28;20080;-78
2021/12/08 07:08:28;;;;;;;34.47;17.95;;;-4.00;95.90;;;;;;5012859;28;20404;-81
2021/12/08 07:10:58;;;;;;;26.98;15.05;;;-4.00;95.40;;;;;;5013466;28;20068;-80
2021/12/08 07:13:28;;;;;;;36.55;19.58;;;-4.00;95.60;;;;;;5013056;28;20061;-82
2021/12/08 07:16:11;;;;;;;33.55;18.00;;;-4.00;95.70;;;;;;5014176;28;20096;-82
2021/12/08 07:18:58;;;;;;;31.55;16.25;;;-3.90;95.60;;;;;;5026799;28;20021;-80
2021/12/08 07:21:36;;;;;;;31.20;17.25;;;-3.90;95.70;;;;;;5039122;28;20071;-81
2021/12/08 07:24:10;;;;;;;33.60;17.48;;;-3.90;95.30;;;;;;5037830;28;20037;-80
2021/12/08 07:26:39;;;;;;;34.33;17.42;;;-3.90;95.30;;;;;;5036205;28;20026;-82
2021/12/08 07:29:09;;;;;;;29.95;16.90;;;-3.90;95.30;;;;;;5036343;28;20083;-79
2021/12/08 07:31:41;;;;;;;30.80;17.98;;;-3.80;95.10;;;;;;5018636;28;20025;-80
2021/12/08 07:34:09;;;;;;;28.92;15.55;;;-3.80;95.30;;;;;;5036191;28;20437;-80
2021/12/08 07:36:39;;;;;;;41.03;18.50;;;-3.80;95.10;;;;;;5036716;28;20498;-81
2021/12/08 07:39:08;;;;;;;31.92;16.67;;;-3.80;95.20;;;;;;5044678;28;20049;-80
2021/12/08 07:41:38;;;;;;;30.20;15.98;;;-3.70;95.30;;;;;;5050695;28;20017;-79
2021/12/08 07:44:10;;;;;;;26.65;14.80;;;-3.70;95.10;;;;;;5036957;28;20459;-79
2021/12/08 07:46:46;;;;;;;28.27;15.20;;;-3.70;94.90;;;;;;5036422;28;20192;-82
2021/12/08 07:49:33;;;;;;;30.00;15.25;;;-3.60;94.90;;;;;;5035835;28;20116;-81
2021/12/08 07:52:10;;;;;;;27.45;15.20;;;-3.60;94.80;;;;;;5018073;28;20029;-81
2021/12/08 07:54:37;;;;;;;33.15;15.95;;;-3.70;94.30;;;;;;5036476;28;20406;-80
2021/12/08 07:57:07;;;;;;;28.00;13.60;;;-3.60;94.60;;;;;;5036277;28;20110;-79
2021/12/08 07:59:35;;;;;;;28.58;18.02;;;-3.60;94.70;;;;;;5035757;28;20032;-80
2021/12/08 08:02:07;;;;;;;30.63;15.90;;;-3.60;94.60;;;;;;5035630;28;20490;-81
2021/12/08 08:04:41;;;;;;;29.85;16.20;;;-3.60;94.40;;;;;;5035663;28;20017;-81
2021/12/08 08:07:09;;;;;;;35.53;18.05;;;-3.60;94.40;;;;;;5036284;28;20493;-81
2021/12/08 08:09:40;;;;;;;28.42;16.70;;;-3.60;94.50;;;;;;5036133;28;20033;-81
2021/12/08 08:12:08;;;;;;;23.27;15.15;;;-3.60;94.60;;;;;;5017744;28;20084;-80
2021/12/08 08:14:39;;;;;;;35.45;21.42;;;-3.70;94.20;;;;;;5035791;28;20112;-81
2021/12/08 08:17:13;;;;;;;33.72;16.83;;;-3.80;94.00;;;;;;5035758;28;20353;-81
2021/12/08 08:19:45;;;;;;;28.33;16.85;;;-3.90;94.30;;;;;;5017919;28;20517;-80
2021/12/08 08:22:22;;;;;;;27.45;16.00;;;-4.00;94.50;;;;;;5035642;28;20393;-81
2021/12/08 08:24:49;;;;;;;28.25;14.77;;;-4.00;94.80;;;;;;5035704;28;20029;-80
2021/12/08 08:27:17;;;;;;;30.30;16.08;;;-4.00;95.00;;;;;;5034746;28;20038;-79
2021/12/08 08:29:46;;;;;;;25.15;13.45;;;-4.00;95.00;;;;;;5035850;28;20104;-81
2021/12/08 08:32:20;;;;;;;28.45;15.88;;;-4.10;95.00;;;;;;5017576;28;20116;-81
2021/12/08 08:34:55;;;;;;;28.92;13.73;;;-4.00;95.10;;;;;;5017921;28;20112;-81
2021/12/08 08:37:22;;;;;;;23.83;14.45;;;-4.00;95.30;;;;;;5035396;28;20059;-81
2021/12/08 08:39:53;;;;;;;28.30;15.93;;;-4.00;94.90;;;;;;5034886;28;20021;-81
2021/12/08 08:42:28;;;;;;;26.55;15.38;;;-4.00;94.80;;;;;;5035237;28;20026;-81
2021/12/08 08:45:15;;;;;;;24.95;14.70;;;-4.00;94.80;;;;;;5017636;28;20394;-79
2021/12/08 08:48:00;;;;;;;23.65;14.85;;;-4.10;95.00;;;;;;5035208;28;20022;-81
2021/12/08 08:51:00;;;;;;;31.42;16.50;;;-4.10;95.10;;;;;;5035079;28;20335;-81
2021/12/08 08:53:29;;;;;;;31.42;16.27;;;-4.00;95.10;;;;;;5024238;28;20042;-81
2021/12/08 08:56:06;;;;;;;27.67;13.43;;;-4.00;95.30;;;;;;5035205;28;20025;-82
2021/12/08 08:58:33;;;;;;;29.13;17.70;;;-3.90;95.50;;;;;;5034890;28;20100;-80
2021/12/08 09:01:21;;;;;;;22.13;12.88;;;-3.90;95.30;;;;;;5035268;28;20091;-81
2021/12/08 09:04:09;;;;;;;18.00;12.30;;;-4.00;95.10;;;;;;5018155;28;20390;-81
2021/12/08 09:06:40;;;;;;;25.13;14.05;;;-4.00;95.10;;;;;;5035693;28;20436;-81
2021/12/08 09:09:11;;;;;;;26.60;12.18;;;-4.10;95.20;;;;;;5016711;28;20108;-80
2021/12/08 09:11:46;;;;;;;21.58;13.60;;;-4.00;95.40;;;;;;5034464;28;20449;-81
2021/12/08 09:14:38;;;;;;;22.20;12.93;;;-4.00;95.50;;;;;;5034725;28;20049;-82
2021/12/08 09:17:17;;;;;;;22.75;12.70;;;-4.00;95.20;;;;;;5034410;28;20036;-80
2021/12/08 09:19:48;;;;;;;21.23;12.20;;;-4.10;95.20;;;;;;5034747;28;20087;-81
2021/12/08 09:22:31;;;;;;;27.52;13.48;;;-4.10;95.20;;;;;;5034955;28;20036;-81
2021/12/08 09:25:11;;;;;;;25.65;13.63;;;-4.10;95.00;;;;;;5034718;28;20021;-82
2021/12/08 09:27:45;;;;;;;23.58;13.10;;;-4.10;94.90;;;;;;5034322;28;20075;-81
2021/12/08 09:30:55;;;;;;;23.05;12.85;;;-4.10;94.80;;;;;;5034844;28;20036;-81
2021/12/08 09:33:26;;;;;;;22.75;12.98;;;-4.10;94.70;;;;;;5016960;28;20021;-81
2021/12/08 09:35:59;;;;;;;20.80;12.73;;;-4.10;94.30;;;;;;5036906;28;20048;-79
2021/12/08 09:38:32;;;;;;;27.35;14.00;;;-4.10;94.10;;;;;;5053597;28;20022;-81
2021/12/08 09:41:05;;;;;;;24.38;13.68;;;-4.20;94.30;;;;;;5018120;28;20115;-80
2021/12/08 09:43:36;;;;;;;22.75;11.85;;;-4.20;94.20;;;;;;5016269;28;20030;-80
2021/12/08 09:46:10;;;;;;;31.85;14.73;;;-4.30;93.60;;;;;;5013594;28;20034;-83
2021/12/08 09:48:45;;;;;;;28.05;17.20;;;-4.40;93.40;;;;;;5014306;28;20088;-81
2021/12/08 09:51:15;;;;;;;25.08;14.02;;;-4.50;93.80;;;;;;5013457;28;20052;-82
2021/12/08 09:53:43;;;;;;;32.92;14.88;;;-4.50;93.90;;;;;;5014004;28;20021;-82
2021/12/08 09:56:10;;;;;;;25.70;14.38;;;-4.50;94.00;;;;;;5017221;28;20029;-82
2021/12/08 09:58:37;;;;;;;22.17;14.60;;;-4.50;94.20;;;;;;5035258;28;20022;-81
2021/12/08 10:01:04;;;;;;;29.73;15.30;;;-4.50;94.30;;;;;;5035753;28;20033;-80
2021/12/08 10:03:32;;;;;;;23.60;15.68;;;-4.40;94.30;;;;;;5016258;28;20103;-81
2021/12/08 10:06:00;;;;;;;27.75;17.38;;;-4.40;94.30;;;;;;5034116;28;20025;-80
2021/12/08 10:08:26;;;;;;;;;;;-4.30;94.30;;;;;;5034028;28;20029;-82
2021/12/08 10:10:52;;;;;;;27.08;15.07;;;-4.30;94.00;;;;;;5033819;28;20402;-80
2021/12/08 10:13:19;;;;;;;28.00;14.75;;;-4.40;94.00;;;;;;5035021;28;20100;-82
2021/12/08 10:15:45;;;;;;;29.10;16.38;;;-4.30;94.00;;;;;;5034214;28;20042;-80
2021/12/08 10:18:23;;;;;;;27.58;15.05;;;-4.30;94.00;;;;;;5034060;28;20063;-83
2021/12/08 10:20:51;;;;;;;23.40;12.25;;;-4.20;93.40;;;;;;5034203;28;20109;-82
2021/12/08 10:23:23;;;;;;;25.77;15.50;;;-4.30;93.50;;;;;;5033700;28;20029;-80
2021/12/08 10:26:14;;;;;;;28.67;16.65;;;-4.30;93.40;;;;;;5033393;28;20056;-80
2021/12/08 10:28:50;;;;;;;26.05;13.75;;;-4.30;93.30;;;;;;5033945;28;20378;-82
2021/12/08 10:31:27;;;;;;;32.28;13.07;;;-4.40;93.40;;;;;;5016001;28;20486;-81
2021/12/08 10:36:43;;;;;;;25.75;14.30;;;-4.40;93.30;;;;;;5033726;28;20087;-82
2021/12/08 10:39:37;;;;;;;19.77;12.18;;;-4.50;93.10;;;;;;5033047;28;20418;-80
2021/12/08 10:42:08;;;;;;;26.98;15.45;;;-4.60;93.10;;;;;;5015491;28;20531;-80
2021/12/08 10:44:51;;;;;;;28.80;14.10;;;-4.80;93.10;;;;;;5033466;28;20553;-83
2021/12/08 10:47:32;;;;;;;20.08;11.93;;;-4.90;93.40;;;;;;5033277;28;20029;-80
2021/12/08 10:55:24;;;;;;;23.02;11.68;;;-5.00;94.10;;;;;;5033143;28;20119;-81
2021/12/08 10:57:56;;;;;;;23.67;11.65;;;-5.00;94.30;;;;;;5037148;28;20081;-81
2021/12/08 11:00:34;;;;;;;24.70;13.27;;;-5.00;94.40;;;;;;5035708;28;20057;-81
2021/12/08 11:03:08;;;;;;;26.98;13.32;;;-5.00;94.50;;;;;;5032743;28;20030;-81
2021/12/08 11:05:48;;;;;;;28.38;13.60;;;-5.00;94.50;;;;;;5033211;28;20483;-83
2021/12/08 11:08:29;;;;;;;23.48;14.20;;;-5.00;94.50;;;;;;5033570;28;20022;-81
2021/12/08 11:11:22;;;;;;;23.95;13.68;;;-5.00;94.50;;;;;;5033560;28;20396;-82
2021/12/08 11:13:54;;;;;;;23.60;13.55;;;-5.00;94.60;;;;;;5015072;28;20382;-83
2021/12/08 11:16:28;;;;;;;26.23;12.88;;;-5.00;94.50;;;;;;5032644;28;20040;-83
2021/12/08 11:19:18;;;;;;;27.42;15.55;;;-5.00;94.40;;;;;;5033154;28;20075;-80
2021/12/08 11:22:06;;;;;;;25.38;13.93;;;-5.10;94.20;;;;;;5033142;28;20044;-80
2021/12/08 11:24:45;;;;;;;26.63;14.95;;;-5.20;94.40;;;;;;5033484;28;20032;-81
2021/12/08 11:27:33;;;;;;;22.20;12.65;;;-5.30;94.50;;;;;;5032837;28;20033;-82
2021/12/08 11:30:11;;;;;;;31.75;15.02;;;-5.30;94.90;;;;;;5033351;28;20043;-80
2021/12/08 11:32:37;;;;;;;27.08;12.98;;;-5.20;95.10;;;;;;5034213;28;20025;-82
2021/12/08 11:35:03;;;;;;;25.27;13.45;;;-5.20;95.10;;;;;;5049186;28;20025;-81
2021/12/08 11:37:34;;;;;;;28.42;14.50;;;-5.20;95.00;;;;;;5042796;28;20022;-83
2021/12/08 11:40:02;;;;;;;29.60;14.25;;;-5.20;94.70;;;;;;5033342;28;20018;-81
2021/12/08 11:42:33;;;;;;;28.15;17.60;;;-5.20;94.80;;;;;;5032534;28;20029;-81
2021/12/08 11:45:09;;;;;;;32.42;15.75;;;-5.30;94.90;;;;;;5015356;28;20542;-81
2021/12/08 11:47:36;;;;;;;26.90;14.57;;;-5.30;95.00;;;;;;5032846;28;20066;-81
2021/12/08 11:50:14;;;;;;;26.13;14.67;;;-5.20;95.10;;;;;;5033054;28;20022;-82
2021/12/08 11:52:41;;;;;;;25.65;14.07;;;-5.20;95.20;;;;;;5033490;28;20034;-82
2021/12/08 11:55:11;;;;;;;24.85;14.93;;;-5.30;95.10;;;;;;5019156;28;20025;-82
2021/12/08 11:57:45;;;;;;;23.90;13.63;;;-5.30;95.10;;;;;;5034534;28;20443;-83
2021/12/08 12:00:14;;;;;;;28.27;16.67;;;-5.30;95.10;;;;;;5032977;28;20029;-80
2021/12/08 12:02:43;;;;;;;31.75;17.00;;;-5.30;94.90;;;;;;5035026;28;20113;-82
2021/12/08 12:05:15;;;;;;;32.58;15.88;;;-5.40;95.00;;;;;;5037194;28;20451;-82
2021/12/08 12:07:41;;;;;;;26.30;15.05;;;-5.40;95.20;;;;;;5037429;28;20026;-84
2021/12/08 12:10:10;;;;;;;25.48;15.07;;;-5.40;95.30;;;;;;5039877;28;20021;-81
2021/12/08 12:12:41;;;;;;;25.30;13.20;;;-5.40;95.40;;;;;;5020704;28;20556;-81
2021/12/08 12:15:10;;;;;;;30.20;14.60;;;-5.30;95.40;;;;;;5036544;28;20403;-81
2021/12/08 12:17:36;;;;;;;26.80;16.15;;;-5.40;95.40;;;;;;5035689;28;20044;-82
2021/12/08 12:20:13;;;;;;;24.02;15.52;;;-5.30;95.40;;;;;;5035875;28;20034;-82
2021/12/08 12:23:05;;;;;;;20.15;12.57;;;-5.30;95.40;;;;;;5036729;28;20052;-83
2021/12/08 12:26:01;;;;;;;26.88;14.65;;;-5.20;95.50;;;;;;5035171;28;20483;-82
2021/12/08 12:28:38;;;;;;;25.77;15.73;;;-5.20;95.50;;;;;;5035952;28;20040;-81
2021/12/08 12:31:22;;;;;;;31.02;15.18;;;-5.20;95.50;;;;;;5017929;28;20029;-82
2021/12/08 12:33:50;;;;;;;21.08;14.27;;;-5.20;95.60;;;;;;5035973;28;20021;-82
2021/12/08 12:36:23;;;;;;;24.77;15.07;;;-5.20;95.50;;;;;;5017822;28;20033;-82
2021/12/08 12:38:50;;;;;;;25.63;14.30;;;-5.10;95.60;;;;;;5018967;28;20448;-82
2021/12/08 12:41:43;;;;;;;23.95;14.18;;;-5.10;95.60;;;;;;5036825;28;20451;-82
2021/12/08 12:44:26;;;;;;;23.10;13.55;;;-5.10;95.40;;;;;;5032036;28;20041;-83
2021/12/08 12:47:09;;;;;;;28.83;15.65;;;-5.10;95.30;;;;;;5035291;28;20030;-83
2021/12/08 12:49:37;;;;;;;28.65;15.57;;;-5.10;95.20;;;;;;5035279;28;20391;-83
2021/12/08 12:52:06;;;;;;;21.90;14.25;;;-5.10;94.90;;;;;;5035303;28;20022;-81
2021/12/08 12:54:32;;;;;;;30.90;16.38;;;-5.20;95.00;;;;;;5035505;28;20026;-82
2021/12/08 12:56:59;;;;;;;31.42;15.98;;;-5.20;95.00;;;;;;5035445;28;20025;-83
2021/12/08 12:59:39;;;;;;;24.92;13.65;;;-5.20;95.00;;;;;;5035347;28;20021;-82
2021/12/08 13:02:13;;;;;;;25.65;14.32;;;-5.20;95.10;;;;;;5035586;28;20045;-82
2021/12/08 13:05:08;;;;;;;32.10;17.13;;;-5.20;95.20;;;;;;5036415;28;20028;-81
2021/12/08 13:07:39;;;;;;;26.55;15.13;;;-5.20;95.20;;;;;;5035896;28;20038;-83
2021/12/08 13:10:14;;;;;;;25.30;13.80;;;-5.20;95.10;;;;;;5017224;28;20028;-81
2021/12/08 13:12:42;;;;;;;28.13;14.15;;;-5.20;95.00;;;;;;5017013;28;20033;-81
2021/12/08 13:15:08;;;;;;;29.08;16.95;;;-5.20;95.00;;;;;;5034696;28;20045;-82
2021/12/08 13:17:35;;;;;;;23.77;13.88;;;-5.30;95.10;;;;;;5017264;28;20049;-81
2021/12/08 13:20:09;;;;;;;28.58;16.13;;;-5.30;95.20;;;;;;5035470;28;20031;-82
2021/12/08 13:22:44;;;;;;;21.05;11.75;;;-5.20;95.30;;;;;;5034795;28;20403;-83
2021/12/08 13:28:39;;;;;;;22.70;13.52;;;-5.20;95.40;;;;;;5038670;28;20033;-81
2021/12/08 13:31:26;;;;;;;26.45;15.05;;;-5.20;95.40;;;;;;5051735;28;20017;-85
2021/12/08 13:33:52;;;;;;;27.55;16.08;;;-5.20;95.50;;;;;;5017313;28;20137;-83
2021/12/08 13:36:21;;;;;;;26.48;14.25;;;-5.20;95.40;;;;;;5034872;28;20064;-82
2021/12/08 13:39:12;;;;;;;31.75;13.70;;;-5.20;95.20;;;;;;5034732;28;20026;-83
2021/12/08 13:41:39;;;;;;;26.25;15.15;;;-5.30;95.00;;;;;;5023705;28;20061;-83
2021/12/08 13:44:39;;;;;;;27.13;13.45;;;-5.40;94.90;;;;;;5034317;28;20096;-84